Time;durP1;ratioP1;P1;durP2;ratioP2;P2;SDS_P1;SDS_P2;PMS_P1;PMS_P2;Temp;Humidity;BMP_temperature;BMP_pressure;BME280_temperature;BME280_humidity;BME280_pressure;Samples;Min_cycle;Max_cycle;Signal;HPM_P1;HPM_P2
2022/03/07 00:02:49;;;;;;;11.90;7.47;;;;;;;1.90;32.82;101594.19;10345705;28;20677;-78
2022/03/07 00:07:52;;;;;;;9.50;7.43;;;;;;;1.33;33.89;101608.41;10349520;28;20224;-80
2022/03/07 00:12:54;;;;;;;10.73;7.83;;;;;;;1.59;33.22;101612.41;10357055;28;20606;-79
2022/03/07 00:17:56;;;;;;;11.47;7.50;;;;;;;2.12;32.70;101613.69;10338160;28;20669;-78
2022/03/07 00:22:58;;;;;;;11.53;7.83;;;;;;;1.79;33.46;101611.81;10356441;28;20265;-79
2022/03/07 00:28:00;;;;;;;8.17;6.77;;;;;;;1.68;34.13;101621.16;10336262;28;20535;-79
2022/03/07 00:33:03;;;;;;;12.53;7.17;;;;;;;2.03;33.43;101616.09;10353521;28;20226;-78
2022/03/07 00:38:05;;;;;;;9.53;8.07;;;;;;;1.95;33.69;101613.75;10340971;28;20262;-82
2022/03/07 00:43:08;;;;;;;9.80;7.27;;;;;;;2.18;33.28;101616.25;10334201;28;20209;-78
2022/03/07 00:48:11;;;;;;;8.77;7.80;;;;;;;2.46;32.14;101615.19;10338107;28;20656;-82
2022/03/07 00:53:16;;;;;;;10.40;7.33;;;;;;;2.37;32.41;101622.34;10337060;28;20664;-80
2022/03/07 00:58:19;;;;;;;10.97;8.10;;;;;;;2.55;32.03;101610.00;10348335;28;20241;-79
2022/03/07 01:03:21;;;;;;;11.50;7.77;;;;;;;2.60;32.20;101598.88;10328264;28;20241;-91
2022/03/07 01:08:23;;;;;;;11.30;7.93;;;;;;;2.79;32.55;101602.13;10341458;28;20256;-90
2022/03/07 01:13:26;;;;;;;10.03;8.17;;;;;;;2.43;32.29;101614.91;10342487;28;20279;-89
2022/03/07 01:18:28;;;;;;;9.67;8.43;;;;;;;2.28;32.81;101612.78;10336180;28;20517;-90
2022/03/07 01:23:31;;;;;;;9.47;8.00;;;;;;;2.47;32.38;101604.88;10318972;28;20202;-88
2022/03/07 01:28:33;;;;;;;10.70;8.33;;;;;;;2.43;32.37;101590.63;10317493;28;20200;-90
2022/03/07 01:33:36;;;;;;;10.10;8.37;;;;;;;2.60;32.52;101598.88;10333143;28;20229;-87
2022/03/07 01:38:38;;;;;;;11.37;8.03;;;;;;;2.63;32.03;101587.19;10320254;28;20581;-88
2022/03/07 01:43:41;;;;;;;11.13;8.67;;;;;;;2.46;32.86;101597.59;10349589;28;20561;-87
2022/03/07 01:48:43;;;;;;;13.97;8.00;;;;;;;2.23;33.17;101599.59;10350939;28;20256;-88
2022/03/07 01:53:46;;;;;;;8.70;7.80;;;;;;;2.71;32.69;101594.22;10364723;28;20209;-88
2022/03/07 01:58:50;;;;;;;12.07;8.00;;;;;;;2.61;32.63;101604.19;10331632;28;20533;-89
2022/03/07 02:03:53;;;;;;;10.90;7.63;;;;;;;2.23;33.96;101595.97;10347795;28;20209;-88
2022/03/07 02:08:56;;;;;;;8.50;7.60;;;;;;;2.23;33.90;101590.38;10333734;28;20206;-88
2022/03/07 02:14:11;;;;;;;9.90;7.60;;;;;;;2.76;32.65;101592.31;10323867;28;20699;-89
2022/03/07 02:19:16;;;;;;;10.27;7.77;;;;;;;2.35;32.82;101587.44;10329706;28;20225;-88
2022/03/07 02:24:19;;;;;;;9.97;8.00;;;;;;;2.94;31.71;101589.16;10355652;28;20232;-89
2022/03/07 02:29:27;;;;;;;11.13;7.60;;;;;;;2.35;32.96;101584.66;10341598;28;20546;-86
2022/03/07 02:34:32;;;;;;;9.43;7.40;;;;;;;2.13;33.60;101595.84;10347051;28;20499;-86
2022/03/07 02:39:35;;;;;;;9.97;7.67;;;;;;;1.89;33.58;101592.50;10323082;28;20272;-88
2022/03/07 02:45:00;;;;;;;11.00;7.60;;;;;;;2.67;32.84;101574.38;10355547;28;20260;-85
2022/03/07 02:50:04;;;;;;;10.37;7.60;;;;;;;2.79;32.21;101583.44;10356249;28;20197;-89
2022/03/07 02:55:06;;;;;;;11.40;7.77;;;;;;;1.97;34.32;101586.44;10340240;28;20240;-88
2022/03/07 03:00:09;;;;;;;10.33;7.30;;;;;;;2.57;32.50;101589.06;10350277;28;20206;-88
2022/03/07 03:05:12;;;;;;;8.37;6.57;;;;;;;1.98;33.84;101590.09;10336419;28;20193;-85
2022/03/07 03:10:14;;;;;;;8.10;6.23;;;;;;;2.73;31.96;101581.69;10365244;28;20264;-88
2022/03/07 03:15:17;;;;;;;9.53;6.83;;;;;;;2.40;32.21;101595.88;10356518;28;20221;-84
2022/03/07 03:20:19;;;;;;;7.40;6.70;;;;;;;2.17;33.38;101597.03;10331967;28;20256;-88
2022/03/07 03:25:22;;;;;;;7.87;6.40;;;;;;;2.70;31.78;101601.75;10354225;28;20267;-78
2022/03/07 03:30:24;;;;;;;8.63;6.47;;;;;;;2.46;32.79;101614.34;10352535;28;20244;-77
2022/03/07 03:35:26;;;;;;;9.10;6.33;;;;;;;1.93;32.86;101610.38;10358210;28;20212;-78
2022/03/07 03:40:28;;;;;;;7.03;5.77;;;;;;;1.96;33.51;101615.44;10360482;28;20267;-79
2022/03/07 03:45:33;;;;;;;8.37;6.83;;;;;;;2.39;32.90;101610.94;10353270;28;20256;-77
2022/03/07 03:50:35;;;;;;;7.90;5.97;;;;;;;2.73;32.33;101601.22;10347820;28;20321;-80
2022/03/07 03:55:38;;;;;;;8.37;6.17;;;;;;;2.78;31.89;101603.25;10343966;28;20519;-78
2022/03/07 04:00:40;;;;;;;8.10;6.47;;;;;;;2.85;31.68;101601.91;10335910;28;20221;-78
2022/03/07 04:05:42;;;;;;;8.67;5.57;;;;;;;2.25;33.39;101610.50;10335542;28;20206;-79
2022/03/07 04:10:46;;;;;;;7.67;5.93;;;;;;;2.42;32.52;101613.22;10352693;28;20556;-81
2022/03/07 04:15:48;;;;;;;8.53;6.00;;;;;;;2.75;31.35;101600.97;10330283;28;20272;-77
2022/03/07 04:20:50;;;;;;;7.17;6.03;;;;;;;2.66;31.89;101606.19;10345382;28;20232;-78
2022/03/07 04:25:53;;;;;;;8.30;6.43;;;;;;;2.55;32.01;101616.44;10332455;28;20535;-80
2022/03/07 04:30:55;;;;;;;7.37;5.87;;;;;;;2.83;32.16;101604.09;10343130;28;20197;-77
2022/03/07 04:35:57;;;;;;;6.90;5.90;;;;;;;2.24;32.46;101612.44;10340794;28;20630;-77
2022/03/07 04:40:59;;;;;;;9.87;5.80;;;;;;;2.55;32.56;101608.06;10365867;28;20272;-77
2022/03/07 04:46:08;;;;;;;8.70;5.77;;;;;;;2.77;31.90;101605.19;10349908;28;20263;-78
2022/03/07 04:51:10;;;;;;;8.20;5.97;;;;;;;3.33;31.38;101591.72;10317335;28;20204;-78
2022/03/07 04:56:12;;;;;;;6.60;5.87;;;;;;;2.73;32.58;101615.19;10326726;28;20246;-79
2022/03/07 05:01:15;;;;;;;9.03;6.63;;;;;;;2.92;31.80;101607.28;10337270;28;20268;-78
2022/03/07 05:06:18;;;;;;;7.33;6.63;;;;;;;2.74;32.14;101610.44;10329092;28;20198;-79
2022/03/07 05:11:20;;;;;;;10.23;6.47;;;;;;;2.72;32.63;101602.34;10356543;28;20202;-77
2022/03/07 05:16:22;;;;;;;9.23;5.50;;;;;;;2.92;31.49;101601.69;10356420;28;20225;-77
2022/03/07 05:21:25;;;;;;;7.67;5.77;;;;;;;3.06;31.62;101596.50;10336325;28;20198;-78
2022/03/07 05:26:27;;;;;;;6.13;5.40;;;;;;;2.76;31.83;101611.88;10323399;28;20234;-78
2022/03/07 05:31:29;;;;;;;5.93;5.33;;;;;;;3.08;31.40;101611.06;10325563;28;20210;-79
2022/03/07 05:36:31;;;;;;;5.57;5.00;;;;;;;2.96;31.60;101614.84;10305323;28;20253;-79
2022/03/07 05:41:34;;;;;;;7.20;4.93;;;;;;;2.90;31.25;101615.91;10287998;28;20230;-78
2022/03/07 05:46:36;;;;;;;5.90;4.43;;;;;;;3.14;31.17;101623.94;10313936;28;20221;-83
2022/03/07 05:51:41;;;;;;;5.77;4.67;;;;;;;3.06;30.82;101624.44;10311296;28;20663;-84
2022/03/07 05:56:43;;;;;;;6.87;4.53;;;;;;;2.75;31.89;101621.34;10299013;28;20257;-83
2022/03/07 06:01:45;;;;;;;6.30;5.30;;;;;;;2.97;31.25;101618.47;10297344;28;20229;-83
2022/03/07 06:06:47;;;;;;;6.57;4.27;;;;;;;3.07;31.59;101613.00;10309464;28;20616;-86
2022/03/07 06:11:49;;;;;;;5.60;4.30;;;;;;;2.67;31.33;101627.44;10344425;28;20284;-85
2022/03/07 06:16:52;;;;;;;5.63;4.30;;;;;;;3.28;30.75;101626.03;10336964;28;20257;-82
2022/03/07 06:21:54;;;;;;;5.53;4.40;;;;;;;2.66;31.47;101636.91;10312742;28;20209;-84
2022/03/07 06:26:57;;;;;;;7.20;3.97;;;;;;;2.82;31.10;101635.13;10323624;28;20230;-84
2022/03/07 06:32:00;;;;;;;5.00;4.50;;;;;;;2.70;32.04;101643.63;10336863;28;20247;-86
2022/03/07 06:37:03;;;;;;;5.63;3.60;;;;;;;2.75;31.40;101638.13;10342374;28;20221;-85
2022/03/07 06:42:05;;;;;;;7.50;4.17;;;;;;;2.72;31.07;101633.06;10350862;28;20252;-84
2022/03/07 06:47:07;;;;;;;5.47;4.47;;;;;;;2.48;31.95;101648.44;10344956;28;20198;-86
2022/03/07 06:52:10;;;;;;;8.63;4.40;;;;;;;3.17;30.38;101638.22;10336991;28;20214;-86
2022/03/07 06:57:12;;;;;;;6.33;4.10;;;;;;;3.07;30.18;101637.31;10327247;28;20303;-85
2022/03/07 07:02:14;;;;;;;6.93;4.00;;;;;;;2.47;31.05;101652.31;10330548;28;20202;-86
2022/03/07 07:07:16;;;;;;;3.90;3.50;;;;;;;3.38;30.14;101639.25;10327686;28;20591;-86
2022/03/07 07:12:19;;;;;;;4.97;3.30;;;;;;;2.97;29.58;101644.47;10346736;28;20197;-86
2022/03/07 07:17:21;;;;;;;3.63;3.03;;;;;;;2.98;30.36;101650.91;10360352;28;20220;-86
2022/03/07 07:22:23;;;;;;;3.67;3.20;;;;;;;3.59;29.18;101655.06;10355578;28;20310;-86
2022/03/07 07:27:25;;;;;;;3.73;3.23;;;;;;;3.62;29.26;101657.31;10355859;28;20267;-86
2022/03/07 07:32:28;;;;;;;3.97;3.17;;;;;;;3.89;28.82;101657.19;10347222;28;20571;-86
2022/03/07 07:37:30;;;;;;;6.93;2.90;;;;;;;3.53;29.51;101655.28;10331754;28;20307;-81
2022/03/07 07:42:33;;;;;;;5.07;3.00;;;;;;;3.42;30.36;101647.94;10322323;28;20244;-86
2022/03/07 07:47:39;;;;;;;4.50;3.30;;;;;;;3.37;29.71;101648.75;10353039;28;20665;-85
2022/03/07 07:52:42;;;;;;;5.60;3.33;;;;;;;2.68;30.92;101668.22;10344525;28;20271;-86
2022/03/07 07:57:44;;;;;;;4.27;3.27;;;;;;;2.95;30.52;101659.84;10326586;28;20316;-84
2022/03/07 08:02:48;;;;;;;3.63;3.13;;;;;;;2.06;31.22;101664.94;10336416;28;20202;-86
2022/03/07 08:07:51;;;;;;;3.53;3.23;;;;;;;2.73;30.79;101665.47;10348256;28;20201;-86
2022/03/07 08:12:53;;;;;;;6.23;3.43;;;;;;;2.80;30.31;101660.53;10325772;28;20210;-84
2022/03/07 08:17:55;;;;;;;8.30;3.80;;;;;;;3.17;29.77;101660.59;10343899;28;20312;-82
2022/03/07 08:22:57;;;;;;;4.03;2.77;;;;;;;3.06;30.35;101663.56;10330796;28;20306;-79
2022/03/07 08:28:00;;;;;;;5.13;3.00;;;;;;;3.12;29.54;101668.06;10350413;28;20221;-82
2022/03/07 08:33:02;;;;;;;2.23;2.13;;;;;;;3.54;28.87;101665.38;10362560;28;20237;-81
2022/03/07 08:38:04;;;;;;;5.57;2.87;;;;;;;3.74;29.43;101675.84;10355979;28;20243;-81
2022/03/07 08:43:06;;;;;;;3.03;2.33;;;;;;;3.71;28.87;101677.25;10385035;28;20220;-81
2022/03/07 08:48:09;;;;;;;1.97;1.83;;;;;;;3.01;28.82;101688.63;10334208;28;20194;-81
2022/03/07 08:53:11;;;;;;;1.90;1.80;;;;;;;3.97;28.25;101670.69;10336796;28;20207;-85
2022/03/07 08:58:13;;;;;;;1.80;1.43;;;;;;;3.67;28.16;101673.28;10334669;28;20225;-86
2022/03/07 09:03:15;;;;;;;3.03;2.03;;;;;;;3.63;28.68;101670.19;10330770;28;20202;-81
2022/03/07 09:08:17;;;;;;;1.97;1.40;;;;;;;4.21;28.06;101665.50;10333460;28;20257;-82
2022/03/07 09:13:20;;;;;;;2.50;1.40;;;;;;;4.87;27.01;101651.72;10337575;28;20279;-85
2022/03/07 09:18:22;;;;;;;2.87;1.00;;;;;;;4.10;27.88;101660.97;10331959;28;20292;-81
2022/03/07 09:23:27;;;;;;;2.63;1.00;;;;;;;4.14;28.09;101653.69;10322955;28;20198;-81
2022/03/07 09:28:29;;;;;;;2.23;1.23;;;;;;;3.87;28.56;101655.78;10328957;28;20471;-87
2022/03/07 09:33:31;;;;;;;3.60;1.63;;;;;;;3.78;28.97;101661.06;10339315;28;20210;-87
2022/03/07 09:38:37;;;;;;;1.50;1.27;;;;;;;5.13;26.95;101648.94;10340354;28;20273;-83
2022/03/07 09:43:40;;;;;;;1.27;1.00;;;;;;;3.83;28.45;101649.91;10341009;28;20252;-88
2022/03/07 09:48:43;;;;;;;3.67;1.73;;;;;;;3.72;28.79;101661.31;10317328;28;20202;-81
2022/03/07 09:53:46;;;;;;;2.13;1.30;;;;;;;3.64;29.23;101654.25;10328127;28;20272;-89
2022/03/07 09:58:48;;;;;;;3.80;1.33;;;;;;;4.04;28.42;101654.47;10331370;28;20222;-84
2022/03/07 10:03:53;;;;;;;1.67;0.97;;;;;;;4.02;28.08;101645.50;10327326;28;20258;-80
2022/03/07 10:08:58;;;;;;;5.53;1.27;;;;;;;3.92;29.00;101651.06;10333388;28;20221;-86
2022/03/07 10:14:04;;;;;;;1.37;1.20;;;;;;;4.83;27.42;101642.16;10303798;28;20225;-86
2022/03/07 10:19:09;;;;;;;1.67;1.43;;;;;;;4.53;27.91;101639.28;10327651;28;20257;-83
2022/03/07 10:24:11;;;;;;;3.80;1.40;;;;;;;4.35;28.44;101649.88;10336806;28;20712;-84
2022/03/07 10:29:14;;;;;;;2.83;1.63;;;;;;;4.02;28.16;101634.31;10322118;28;20201;-81
2022/03/07 10:34:35;;;;;;;1.87;1.23;;;;;;;4.61;27.21;101628.41;10320429;28;20593;-84
2022/03/07 10:39:45;;;;;;;1.60;1.20;;;;;;;5.28;27.96;101618.09;10337802;28;20519;-83
2022/03/07 10:44:48;;;;;;;1.60;1.50;;;;;;;4.95;27.43;101617.53;10338201;28;20194;-89
2022/03/07 10:49:54;;;;;;;4.57;1.40;;;;;;;5.01;27.16;101613.63;10337823;28;20233;-84
2022/03/07 10:54:56;;;;;;;4.70;1.40;;;;;;;5.52;26.84;101602.34;10337434;28;20256;-86
2022/03/07 11:00:08;;;;;;;1.80;1.53;;;;;;;5.07;27.30;101598.47;10337052;28;20230;-87
2022/03/07 11:05:11;;;;;;;1.70;1.60;;;;;;;5.60;26.43;101587.72;10332889;28;20264;-87
2022/03/07 11:10:15;;;;;;;1.87;1.70;;;;;;;6.25;26.46;101587.78;10341390;28;20601;-86
2022/03/07 11:15:18;;;;;;;2.93;1.70;;;;;;;6.52;25.94;101566.56;10367079;28;20709;-81
2022/03/07 11:20:22;;;;;;;1.57;1.47;;;;;;;6.23;26.31;101564.78;10358421;28;20650;-86
2022/03/07 11:25:25;;;;;;;2.93;1.87;;;;;;;6.57;25.89;101557.28;10321483;28;20507;-82
2022/03/07 11:30:33;;;;;;;2.63;1.90;;;;;;;6.99;25.85;101545.41;10332081;28;20194;-86
2022/03/07 11:35:36;;;;;;;3.17;2.27;;;;;;;5.56;26.98;101564.16;10356489;28;20542;-87
2022/03/07 11:41:06;;;;;;;1.83;1.60;;;;;;;6.86;25.45;101544.13;10332293;28;20295;-84
2022/03/07 11:46:10;;;;;;;2.57;2.00;;;;;;;6.36;26.00;101536.88;10370151;28;20201;-86
2022/03/07 11:51:21;;;;;;;2.57;1.60;;;;;;;6.35;25.82;101537.19;10347986;28;20571;-82
2022/03/07 11:56:27;;;;;;;3.07;1.87;;;;;;;6.09;26.99;101528.06;10330665;28;20205;-81
2022/03/07 12:01:31;;;;;;;2.03;1.60;;;;;;;6.58;25.41;101521.59;10334056;28;20230;-84
2022/03/07 12:06:45;;;;;;;7.47;2.00;;;;;;;5.88;26.64;101512.47;10327057;28;20569;-86
2022/03/07 12:11:56;;;;;;;3.47;2.07;;;;;;;6.91;25.46;101503.91;10326326;28;20198;-86
2022/03/07 12:17:01;;;;;;;3.27;2.10;;;;;;;7.07;25.10;101488.56;10329468;28;20280;-86
2022/03/07 12:22:13;;;;;;;2.00;1.73;;;;;;;6.59;25.99;101486.75;10317653;28;20229;-87
2022/03/07 12:27:15;;;;;;;3.57;2.17;;;;;;;7.06;25.59;101492.50;10325034;28;20198;-87
2022/03/07 12:32:18;;;;;;;5.87;2.10;;;;;;;7.15;25.47;101487.91;10333818;28;20603;-86
2022/03/07 12:37:22;;;;;;;1.93;1.70;;;;;;;7.46;24.48;101474.34;10342330;28;20229;-84
2022/03/07 12:42:29;;;;;;;4.33;2.13;;;;;;;6.76;25.21;101471.16;10316820;28;20202;-87
2022/03/07 12:47:33;;;;;;;2.97;2.20;;;;;;;7.56;24.96;101470.56;10336255;28;20252;-86
2022/03/07 12:52:38;;;;;;;3.67;1.90;;;;;;;8.02;24.48;101464.31;10353007;28;20201;-86
2022/03/07 12:57:41;;;;;;;4.43;2.30;;;;;;;7.79;24.39;101455.66;10321788;28;20273;-84
2022/03/07 13:02:49;;;;;;;2.67;1.73;;;;;;;7.36;25.34;101468.00;10330304;28;20261;-84
2022/03/07 13:08:00;;;;;;;3.30;1.50;;;;;;;7.75;24.55;101448.97;10315095;28;20198;-85
2022/03/07 13:13:04;;;;;;;2.53;1.90;;;;;;;7.84;24.45;101452.78;10328525;28;20210;-85
2022/03/07 13:18:07;;;;;;;2.40;2.20;;;;;;;8.04;24.63;101436.69;10322420;28;20284;-85
2022/03/07 13:23:10;;;;;;;4.37;2.30;;;;;;;7.67;25.12;101435.50;10340029;28;20542;-85
2022/03/07 13:28:25;;;;;;;3.10;2.37;;;;;;;8.31;24.11;101422.75;10341834;28;20260;-86
2022/03/07 13:33:33;;;;;;;3.63;1.97;;;;;;;7.70;25.04;101422.81;10322957;28;20202;-85
2022/03/07 13:38:36;;;;;;;2.20;1.87;;;;;;;7.80;24.48;101428.34;10321869;28;20206;-85
2022/03/07 13:43:40;;;;;;;1.93;1.70;;;;;;;8.35;23.72;101418.19;10309946;28;20547;-85
2022/03/07 13:48:42;;;;;;;2.50;1.50;;;;;;;8.17;23.77;101399.31;10324373;28;20272;-86
2022/03/07 13:53:44;;;;;;;4.27;1.60;;;;;;;8.07;23.50;101399.50;10325232;28;20276;-86
2022/03/07 13:58:46;;;;;;;1.97;1.80;;;;;;;8.83;22.75;101399.03;10327609;28;21724;-84
2022/03/07 14:03:49;;;;;;;3.87;1.53;;;;;;;7.83;24.14;101394.78;10325190;28;20203;-86
2022/03/07 14:08:51;;;;;;;1.83;1.47;;;;;;;8.73;23.30;101389.94;10322277;28;20587;-86
2022/03/07 14:13:56;;;;;;;2.60;1.47;;;;;;;8.02;23.24;101379.84;10334283;28;20582;-89
2022/03/07 14:18:59;;;;;;;1.97;1.77;;;;;;;7.02;24.28;101387.38;10337199;28;20221;-85
2022/03/07 14:24:01;;;;;;;3.77;1.77;;;;;;;7.94;23.24;101385.03;10323281;28;20198;-86
2022/03/07 14:29:04;;;;;;;1.77;1.30;;;;;;;7.61;23.96;101388.91;10322850;28;20194;-85
2022/03/07 14:34:07;;;;;;;1.83;1.50;;;;;;;7.71;23.63;101391.56;10316165;28;20215;-85
2022/03/07 14:39:11;;;;;;;1.87;1.70;;;;;;;8.01;23.68;101395.09;10316237;28;20245;-82
2022/03/07 14:44:13;;;;;;;2.97;1.90;;;;;;;7.56;23.67;101394.59;10316727;28;20260;-87
2022/03/07 14:49:16;;;;;;;2.17;1.90;;;;;;;7.74;23.01;101388.19;10319876;28;20252;-87
2022/03/07 14:54:18;;;;;;;2.03;1.87;;;;;;;7.80;23.99;101378.50;10326996;28;20206;-85
2022/03/07 14:59:21;;;;;;;1.90;1.80;;;;;;;8.49;22.79;101373.97;10323717;28;20214;-85
2022/03/07 15:04:23;;;;;;;3.13;2.33;;;;;;;7.94;23.63;101385.03;10310113;28;20232;-86
2022/03/07 15:09:25;;;;;;;2.07;1.70;;;;;;;8.13;23.29;101373.78;10321771;28;20712;-86
2022/03/07 15:14:27;;;;;;;2.83;2.10;;;;;;;7.77;23.93;101373.47;10324085;28;20514;-85
2022/03/07 15:19:29;;;;;;;4.60;2.10;;;;;;;7.53;24.68;101359.44;10302108;28;20253;-87
2022/03/07 15:24:33;;;;;;;3.03;2.20;;;;;;;7.02;24.90;101378.09;10315585;28;20202;-86
2022/03/07 15:29:38;;;;;;;2.67;2.00;;;;;;;7.06;24.87;101374.41;10327903;28;20198;-83
2022/03/07 15:34:43;;;;;;;3.47;2.17;;;;;;;6.82;24.95;101363.16;10341107;28;20233;-87
2022/03/07 15:39:46;;;;;;;2.10;1.90;;;;;;;8.07;23.90;101345.97;10351944;28;20225;-87
2022/03/07 15:44:56;;;;;;;6.00;1.97;;;;;;;7.45;23.95;101343.25;10340439;28;20202;-88
2022/03/07 15:49:58;;;;;;;3.10;2.10;;;;;;;7.76;23.92;101340.00;10359474;28;20193;-86
2022/03/07 15:55:01;;;;;;;2.83;1.67;;;;;;;7.29;23.89;101335.31;10369764;28;20201;-88
2022/03/07 16:00:05;;;;;;;2.40;2.20;;;;;;;7.16;24.40;101334.91;10305176;28;20234;-86
2022/03/07 16:05:08;;;;;;;3.10;1.97;;;;;;;6.53;25.14;101337.88;10322697;28;20201;-87
2022/03/07 16:10:11;;;;;;;2.30;1.90;;;;;;;6.87;24.70;101339.75;10320677;28;20287;-88
2022/03/07 16:15:13;;;;;;;2.30;1.87;;;;;;;7.51;23.86;101336.38;10339180;28;20233;-86
2022/03/07 16:20:16;;;;;;;2.80;2.27;;;;;;;7.78;23.85;101337.72;10343155;28;20274;-87
2022/03/07 16:25:19;;;;;;;4.67;2.47;;;;;;;7.09;24.15;101339.25;10589863;23;20229;-87
2022/03/07 16:30:21;;;;;;;5.70;2.13;;;;;;;6.42;25.08;101353.16;10327545;28;20241;-85
2022/03/07 16:35:24;;;;;;;2.70;1.77;;;;;;;7.77;23.50;101342.50;10321540;28;20621;-85
2022/03/07 16:40:26;;;;;;;1.60;1.43;;;;;;;7.87;23.29;101336.75;10318621;28;20308;-88
2022/03/07 16:45:28;;;;;;;2.87;1.90;;;;;;;7.15;24.04;101349.28;10328840;28;20197;-87
2022/03/07 16:50:32;;;;;;;3.43;2.20;;;;;;;7.51;24.03;101346.81;10302284;28;20206;-86
2022/03/07 16:55:40;;;;;;;1.60;1.50;;;;;;;7.15;24.44;101344.47;10326206;28;20213;-85
2022/03/07 17:00:42;;;;;;;2.30;1.90;;;;;;;7.51;23.64;101358.06;10322637;28;20229;-84
2022/03/07 17:05:45;;;;;;;2.13;1.80;;;;;;;7.18;24.10;101346.69;10308237;28;20789;-82
2022/03/07 17:10:47;;;;;;;3.30;1.83;;;;;;;7.24;24.01;101351.09;10319791;28;20252;-85
2022/03/07 17:15:50;;;;;;;3.30;2.20;;;;;;;6.51;24.67;101350.53;10316180;28;20217;-85
2022/03/07 17:20:52;;;;;;;2.57;1.90;;;;;;;6.90;24.34;101344.78;10324654;28;20222;-84
2022/03/07 17:25:55;;;;;;;2.90;2.07;;;;;;;6.28;25.71;101352.16;10306358;28;20242;-85
2022/03/07 17:30:58;;;;;;;2.87;1.70;;;;;;;6.62;24.70;101337.22;10329090;28;20264;-85
2022/03/07 17:36:02;;;;;;;3.83;2.00;;;;;;;6.82;25.02;101345.47;10332594;28;20206;-84
2022/03/07 17:41:04;;;;;;;2.43;1.70;;;;;;;6.39;25.37;101348.13;10326850;28;20323;-85
2022/03/07 17:46:07;;;;;;;2.73;2.10;;;;;;;6.40;25.94;101349.81;10313700;28;20525;-85
2022/03/07 17:51:09;;;;;;;4.17;2.27;;;;;;;6.51;25.52;101354.19;10320120;28;20202;-85
2022/03/07 17:56:14;;;;;;;2.80;2.37;;;;;;;5.89;26.77;101354.19;10284651;28;20265;-85
2022/03/07 18:01:16;;;;;;;2.00;1.80;;;;;;;6.14;26.10;101366.03;10317911;28;20229;-84
2022/03/07 18:06:19;;;;;;;2.90;2.33;;;;;;;5.88;26.77;101367.38;10279546;28;20214;-84
2022/03/07 18:11:21;;;;;;;2.57;2.13;;;;;;;6.08;25.98;101370.00;10299532;28;20230;-85
2022/03/07 18:16:24;;;;;;;4.67;2.23;;;;;;;6.91;25.60;101360.53;10301571;28;20680;-85
2022/03/07 18:21:26;;;;;;;5.00;2.60;;;;;;;6.85;25.77;101372.94;10309618;28;20308;-85
2022/03/07 18:26:29;;;;;;;4.40;2.60;;;;;;;6.12;26.56;101375.88;10296736;28;20250;-84
2022/03/07 18:31:32;;;;;;;3.23;2.23;;;;;;;6.51;26.16;101387.06;10305759;28;20318;-84
2022/03/07 18:36:35;;;;;;;3.37;2.43;;;;;;;6.45;25.83;101393.88;10295527;28;20292;-85
2022/03/07 18:41:38;;;;;;;3.43;2.10;;;;;;;6.42;25.91;101392.47;10308819;28;20289;-85
2022/03/07 18:46:41;;;;;;;5.80;1.93;;;;;;;6.51;25.21;101390.69;10289440;28;20270;-87
2022/03/07 18:51:43;;;;;;;2.20;2.00;;;;;;;6.25;25.87;101391.22;10295716;28;20234;-84
2022/03/07 18:56:46;;;;;;;4.50;2.20;;;;;;;6.15;26.16;101386.53;10308341;28;20206;-85
2022/03/07 19:01:48;;;;;;;2.90;2.00;;;;;;;5.95;25.63;101392.28;10308435;28;20277;-85
2022/03/07 19:06:52;;;;;;;3.10;1.80;;;;;;;6.56;24.90;101386.19;10302987;28;20202;-88
2022/03/07 19:11:54;;;;;;;1.83;1.73;;;;;;;6.09;25.27;101387.69;10309042;28;20281;-89
2022/03/07 19:16:57;;;;;;;2.83;1.73;;;;;;;5.48;26.06;101393.69;10297369;28;20217;-86
2022/03/07 19:21:59;;;;;;;4.90;2.10;;;;;;;5.16;25.89;101405.31;10335979;28;20561;-88
2022/03/07 19:27:02;;;;;;;1.80;1.70;;;;;;;5.93;24.78;101394.56;10295878;28;20272;-86
2022/03/07 19:32:05;;;;;;;3.50;1.80;;;;;;;5.98;25.27;101386.09;10309250;28;20210;-87
2022/03/07 19:37:10;;;;;;;3.17;1.87;;;;;;;5.61;26.06;101393.03;10310475;28;20257;-88
2022/03/07 19:42:12;;;;;;;3.73;1.80;;;;;;;6.18;25.13;101392.41;10304133;28;20291;-86
2022/03/07 19:47:15;;;;;;;3.27;1.83;;;;;;;5.81;26.15;101395.75;10329533;28;20983;-88
2022/03/07 19:52:18;;;;;;;2.43;2.00;;;;;;;6.31;25.00;101393.72;10328326;28;20272;-86
2022/03/07 19:57:20;;;;;;;2.10;1.90;;;;;;;6.14;25.07;101396.94;10312048;28;20213;-89
2022/03/07 20:02:22;;;;;;;2.20;1.77;;;;;;;5.52;25.91;101397.59;10304892;28;20229;-86
2022/03/07 20:07:25;;;;;;;3.57;2.17;;;;;;;5.67;25.82;101396.72;10313263;28;20209;-87
2022/03/07 20:12:28;;;;;;;5.70;2.47;;;;;;;5.57;25.76;101397.53;10308813;28;20264;-87
2022/03/07 20:17:30;;;;;;;4.83;2.33;;;;;;;5.64;25.33;101397.25;10315465;28;20210;-86
2022/03/07 20:22:32;;;;;;;2.30;2.10;;;;;;;5.72;26.15;101394.69;10298034;28;20712;-87
2022/03/07 20:27:41;;;;;;;4.67;2.33;;;;;;;4.89;26.27;101408.50;10306809;28;20209;-86
2022/03/07 20:32:44;;;;;;;4.47;2.60;;;;;;;5.66;25.43;101390.25;10315832;28;20230;-86
2022/03/07 20:37:46;;;;;;;4.33;2.40;;;;;;;5.09;26.53;101402.81;10284875;28;20280;-87
2022/03/07 20:42:48;;;;;;;1.97;1.83;;;;;;;4.94;26.32;101411.28;10315738;28;20242;-86
2022/03/07 20:47:51;;;;;;;3.70;2.30;;;;;;;4.51;26.97;101407.13;10313477;28;20202;-87
2022/03/07 20:52:53;;;;;;;2.57;2.37;;;;;;;5.38;26.21;101413.38;10324647;28;21449;-86
2022/03/07 20:57:55;;;;;;;3.03;2.53;;;;;;;4.59;26.91;101419.75;10323793;28;20268;-87
2022/03/07 21:02:57;;;;;;;2.77;2.50;;;;;;;4.87;26.82;101415.50;10317205;28;20230;-86
2022/03/07 21:08:00;;;;;;;5.47;2.50;;;;;;;4.74;26.59;101417.78;10327254;28;20735;-86
2022/03/07 21:13:03;;;;;;;3.17;2.37;;;;;;;4.82;26.54;101407.94;10329577;28;20222;-87
2022/03/07 21:18:05;;;;;;;3.77;2.13;;;;;;;4.49;27.24;101400.97;10310922;28;20248;-86
2022/03/07 21:23:07;;;;;;;3.80;2.33;;;;;;;4.87;26.68;101395.88;10300479;28;20268;-87
2022/03/07 21:28:09;;;;;;;3.50;2.77;;;;;;;5.34;26.44;101398.22;10317699;28;20261;-87
2022/03/07 21:33:11;;;;;;;3.33;2.33;;;;;;;5.30;26.66;101394.31;10312183;28;20624;-87
2022/03/07 21:38:14;;;;;;;3.27;2.67;;;;;;;5.13;26.44;101403.09;10330340;28;20210;-87
2022/03/07 21:43:16;;;;;;;4.77;2.27;;;;;;;4.81;26.95;101403.44;10314879;28;20241;-85
2022/03/07 21:48:18;;;;;;;2.13;1.93;;;;;;;4.30;27.28;101400.69;10336557;28;20676;-85
2022/03/07 21:53:20;;;;;;;5.30;2.60;;;;;;;5.35;25.62;101405.53;10334184;28;20273;-86
2022/03/07 21:58:27;;;;;;;2.57;2.37;;;;;;;5.53;25.71;101396.47;10309696;28;20202;-87
2022/03/07 22:03:30;;;;;;;3.87;2.13;;;;;;;4.85;26.08;101398.97;10330974;28;20234;-86
2022/03/07 22:08:33;;;;;;;2.20;1.97;;;;;;;5.39;26.06;101395.41;10315375;28;20808;-86
2022/03/07 22:13:35;;;;;;;4.40;2.37;;;;;;;4.91;26.99;101406.22;10327265;28;20209;-86
2022/03/07 22:18:38;;;;;;;2.30;2.10;;;;;;;5.07;26.12;101415.44;10316047;28;20542;-87
2022/03/07 22:23:40;;;;;;;2.07;1.60;;;;;;;4.57;26.85;101417.22;10316401;28;20282;-84
2022/03/07 22:28:43;;;;;;;2.73;1.50;;;;;;;4.25;27.25;101414.66;10303940;28;20218;-84
2022/03/07 22:33:45;;;;;;;3.40;1.83;;;;;;;4.79;26.40;101413.25;10306902;28;20586;-84
2022/03/07 22:38:47;;;;;;;3.57;1.83;;;;;;;4.52;26.30;101402.38;10287510;28;20606;-85
2022/03/07 22:43:50;;;;;;;2.07;1.97;;;;;;;5.00;26.90;101420.50;10310263;28;20260;-87
2022/03/07 22:48:52;;;;;;;5.80;2.20;;;;;;;4.81;26.51;101422.22;10327734;28;20224;-85
2022/03/07 22:53:54;;;;;;;2.40;1.80;;;;;;;4.87;27.11;101427.56;10289765;28;20214;-85
2022/03/07 22:58:59;;;;;;;4.03;1.90;;;;;;;4.97;26.35;101421.06;10308156;28;20209;-86
2022/03/07 23:04:02;;;;;;;2.87;1.97;;;;;;;4.27;27.16;101418.03;10299585;28;20261;-86
2022/03/07 23:09:04;;;;;;;2.27;1.50;;;;;;;4.61;26.96;101415.56;10304880;28;20221;-86
2022/03/07 23:14:07;;;;;;;3.13;2.47;;;;;;;4.73;26.84;101412.44;10324246;28;20685;-86
2022/03/07 23:19:11;;;;;;;3.47;2.03;;;;;;;4.36;27.33;101416.38;10318027;28;20228;-85
2022/03/07 23:24:14;;;;;;;2.83;2.07;;;;;;;4.32;27.46;101415.25;10306150;28;20229;-86
2022/03/07 23:29:17;;;;;;;1.97;1.77;;;;;;;4.84;27.44;101405.69;10316864;28;20232;-87